Surprise, Nebraska
Current Conditions -  °F | °C
As of 6:55 AM on Friday 19 Dec 2014 (Local Time) from KJYR Reporting Station
Haze Haze  
Wind Chill: 24°   Ceiling: 1000
Heat Index: 30°   Visibility: 6mi
Dew Point: 28°   Wind: 6mph
Humidity: 93%   Direction: 200°SSW
Pressure: 30.16"   Gusts: NA
Location:  41.11°N, 97.31°W
Report Text: KJYR 191255Z AUTO 20005KT 6SM BR OVC010 M01/M02 A3016 RMK AO2
Loading
Personal Weather Stations






























Interactive Weather Map New forecast layout! Learn more

10-Day Weather Forecast

Advertisements
Track Severe Weather on mobile